
Distance (Route):
Temperature : 8.0°C
Humidity : 0%
Pressure : 0hPa| Receiver | Frames | First received | Last received |
|---|---|---|---|
| ARGUS2 | 301 | 2026-08-31 23:05:55 | 2026-09-01 01:13:13 |
| Receiver | Date | Latitude | Longitude | Direction | Speed | Altitude | Climb | Temperature | Humidity | Pressure | Voltage | Killtimer | Uptime | BKT | XDATA |
|---|---|---|---|---|---|---|---|---|---|---|---|---|---|---|---|
| ARGUS2 | 2026-09-01 01:13:13 | 27.59925 | -82.58335 | 224° | 20km/h | 3090m | -8.9m/s | 8.0°C | 0% | 0hPa | 0V | 00:00:00 | 00:00:00 | 00:00:00 | |
| ARGUS2 | 2026-09-01 01:12:53 | 27.60012 | -82.58247 | 229° | 24km/h | 3283m | -8.0m/s | 7.1°C | 0% | 0hPa | 0V | 00:00:00 | 00:00:00 | 00:00:00 | |
| ARGUS2 | 2026-09-01 01:08:18 | 27.61255 | -82.57995 | 127° | 13km/h | 5925m | -8.0m/s | -6.6°C | 0% | 0hPa | 0V | 00:00:00 | 00:00:00 | 00:00:00 | |
| ARGUS2 | 2026-09-01 01:07:58 | 27.61298 | -82.58060 | 121° | 15km/h | 6105m | -7.1m/s | -7.8°C | 0% | 0hPa | 0V | 00:00:00 | 00:00:00 | 00:00:00 | |
| ARGUS2 | 2026-09-01 01:07:16 | 27.61396 | -82.58192 | 121° | 15km/h | 6440m | -7.8m/s | -10.2°C | 0% | 0hPa | 0V | 00:00:00 | 00:00:00 | 00:00:00 | |
| ARGUS2 | 2026-09-01 01:06:55 | 27.61432 | -82.58256 | 112° | 13km/h | 6611m | -8.8m/s | -11.3°C | 0% | 0hPa | 0V | 00:00:00 | 00:00:00 | 00:00:00 | |
| ARGUS2 | 2026-09-01 01:06:34 | 27.61461 | -82.58319 | 120° | 16km/h | 6796m | -8.7m/s | -11.8°C | 0% | 0hPa | 0V | 00:00:00 | 00:00:00 | 00:00:00 | |
| ARGUS2 | 2026-09-01 01:06:13 | 27.61487 | -82.58406 | 98° | 11km/h | 6991m | -9.4m/s | -12.6°C | 0% | 0hPa | 0V | 00:00:00 | 00:00:00 | 00:00:00 | |
| ARGUS2 | 2026-09-01 01:05:49 | 27.61460 | -82.58458 | 27° | 9km/h | 7202m | -10.3m/s | -13.3°C | 0% | 0hPa | 0V | 00:00:00 | 00:00:00 | 00:00:00 | |
| ARGUS2 | 2026-09-01 01:05:28 | 27.61399 | -82.58462 | 3° | 11km/h | 7394m | -11.2m/s | -14.5°C | 0% | 0hPa | 0V | 00:00:00 | 00:00:00 | 00:00:00 | |
| ARGUS2 | 2026-09-01 01:02:53 | 27.61262 | -82.58152 | 227° | 7km/h | 9171m | -10.2m/s | -25.7°C | 0% | 0hPa | 0V | 00:00:00 | 00:00:00 | 00:00:00 | |
| ARGUS2 | 2026-09-01 01:02:32 | 27.61282 | -82.58125 | 239° | 9km/h | 9381m | -10.6m/s | -27.2°C | 0% | 0hPa | 0V | 00:00:00 | 00:00:00 | 00:00:00 | |
| ARGUS2 | 2026-09-01 01:02:12 | 27.61306 | -82.58073 | 215° | 9km/h | 9645m | -13.9m/s | -29.2°C | 0% | 0hPa | 0V | 00:00:00 | 00:00:00 | 00:00:00 | |
| ARGUS2 | 2026-09-01 01:01:52 | 27.61341 | -82.58037 | 211° | 9km/h | 9917m | -13.7m/s | -31.2°C | 0% | 0hPa | 0V | 00:00:00 | 00:00:00 | 00:00:00 | |
| ARGUS2 | 2026-09-01 01:01:31 | 27.61398 | -82.58018 | 179° | 7km/h | 10200m | -16.2m/s | -33.6°C | 0% | 0hPa | 0V | 00:00:00 | 00:00:00 | 00:00:00 | |
| ARGUS2 | 2026-09-01 01:01:11 | 27.61452 | -82.58018 | 196° | 9km/h | 10524m | -14.7m/s | -36.3°C | 0% | 0hPa | 0V | 00:00:00 | 00:00:00 | 00:00:00 | |
| ARGUS2 | 2026-09-01 01:00:50 | 27.61519 | -82.57985 | 201° | 20km/h | 10851m | -16.8m/s | -38.6°C | 0% | 0hPa | 0V | 00:00:00 | 00:00:00 | 00:00:00 | |
| ARGUS2 | 2026-09-01 01:00:30 | 27.61642 | -82.57921 | 207° | 26km/h | 11215m | -17.2m/s | -41.7°C | 0% | 0hPa | 0V | 00:00:00 | 00:00:00 | 00:00:00 | |
| ARGUS2 | 2026-09-01 01:00:09 | 27.61741 | -82.57886 | 189° | 20km/h | 11543m | -15.3m/s | -44.4°C | 0% | 0hPa | 0V | 00:00:00 | 00:00:00 | 00:00:00 | |
| ARGUS2 | 2026-09-01 00:59:49 | 27.61838 | -82.57858 | 207° | 20km/h | 11752m | -12.0m/s | -46.2°C | 0% | 0hPa | 0V | 00:00:00 | 00:00:00 | 00:00:00 | |
| ARGUS2 | 2026-09-01 00:59:27 | 27.61904 | -82.57829 | 194° | 11km/h | 11935m | -7.4m/s | -47.7°C | 0% | 0hPa | 0V | 00:00:00 | 00:00:00 | 00:00:00 | |
| ARGUS2 | 2026-09-01 00:59:07 | 27.61948 | -82.57814 | 185° | 4km/h | 12079m | -7.4m/s | -49.0°C | 0% | 0hPa | 0V | 00:00:00 | 00:00:00 | 00:00:00 | |
| ARGUS2 | 2026-09-01 00:58:46 | 27.61980 | -82.57809 | 168° | 5km/h | 12256m | -10.6m/s | -50.5°C | 0% | 0hPa | 0V | 00:00:00 | 00:00:00 | 00:00:00 | |
| ARGUS2 | 2026-09-01 00:58:27 | 27.61989 | -82.57829 | 116° | 5km/h | 12483m | -11.5m/s | -52.4°C | 0% | 0hPa | 0V | 00:00:00 | 00:00:00 | 00:00:00 | |
| ARGUS2 | 2026-09-01 00:58:06 | 27.61989 | -82.57846 | 312° | 5km/h | 12729m | -12.4m/s | -54.4°C | 0% | 0hPa | 0V | 00:00:00 | 00:00:00 | 00:00:00 | |
| ARGUS2 | 2026-09-01 00:57:45 | 27.61967 | -82.57831 | 317° | 9km/h | 12943m | -8.4m/s | -56.3°C | 0% | 0hPa | 0V | 00:00:00 | 00:00:00 | 00:00:00 | |
| ARGUS2 | 2026-09-01 00:57:25 | 27.61904 | -82.57803 | 344° | 15km/h | 13169m | -11.1m/s | -58.2°C | 0% | 0hPa | 0V | 00:00:00 | 00:00:00 | 00:00:00 | |
| ARGUS2 | 2026-09-01 00:57:04 | 27.61820 | -82.57797 | 24° | 18km/h | 13369m | -9.6m/s | -59.8°C | 0% | 0hPa | 0V | 00:00:00 | 00:00:00 | 00:00:00 | |
| ARGUS2 | 2026-09-01 00:56:44 | 27.61756 | -82.57819 | 46° | 11km/h | 13571m | -9.5m/s | -61.4°C | 0% | 0hPa | 0V | 00:00:00 | 00:00:00 | 00:00:00 | |
| ARGUS2 | 2026-09-01 00:56:24 | 27.61723 | -82.57838 | 117° | 15km/h | 13749m | -9.5m/s | -63.0°C | 0% | 0hPa | 0V | 00:00:00 | 00:00:00 | 00:00:00 | |
| ARGUS2 | 2026-09-01 00:56:01 | 27.61713 | -82.57854 | 247° | 5km/h | 13972m | -9.5m/s | -64.8°C | 0% | 0hPa | 0V | 00:00:00 | 00:00:00 | 00:00:00 | |
| ARGUS2 | 2026-09-01 00:55:39 | 27.61720 | -82.57901 | 184° | 4km/h | 14164m | -9.6m/s | -65.8°C | 0% | 0hPa | 0V | 00:00:00 | 00:00:00 | 00:00:00 | |
| ARGUS2 | 2026-09-01 00:55:17 | 27.61739 | -82.57917 | 266° | 7km/h | 14379m | -9.8m/s | -67.5°C | 0% | 0hPa | 0V | 00:00:00 | 00:00:00 | 00:00:00 | |
| ARGUS2 | 2026-09-01 00:54:57 | 27.61765 | -82.57912 | 241° | 15km/h | 14574m | -10.1m/s | -67.7°C | 0% | 0hPa | 0V | 00:00:00 | 00:00:00 | 00:00:00 | |
| ARGUS2 | 2026-09-01 00:54:36 | 27.61829 | -82.57845 | 247° | 16km/h | 14793m | -10.7m/s | -67.7°C | 0% | 0hPa | 0V | 00:00:00 | 00:00:00 | 00:00:00 | |
| ARGUS2 | 2026-09-01 00:54:16 | 27.61899 | -82.57784 | 243° | 16km/h | 15006m | -10.8m/s | -68.4°C | 0% | 0hPa | 0V | 00:00:00 | 00:00:00 | 00:00:00 | |
| ARGUS2 | 2026-09-01 00:53:56 | 27.61926 | -82.57693 | 317° | 20km/h | 15231m | -10.9m/s | -69.1°C | 0% | 0hPa | 0V | 00:00:00 | 00:00:00 | 00:00:00 | |
| ARGUS2 | 2026-09-01 00:53:35 | 27.61909 | -82.57643 | 289° | 16km/h | 15439m | -10.9m/s | -67.7°C | 0% | 0hPa | 0V | 00:00:00 | 00:00:00 | 00:00:00 | |
| ARGUS2 | 2026-09-01 00:53:15 | 27.61893 | -82.57596 | 290° | 13km/h | 15669m | -12.0m/s | -68.1°C | 0% | 0hPa | 0V | 00:00:00 | 00:00:00 | 00:00:00 | |
| ARGUS2 | 2026-09-01 00:52:54 | 27.61823 | -82.57524 | 342° | 26km/h | 15849m | -8.7m/s | -68.3°C | 0% | 0hPa | 0V | 00:00:00 | 00:00:00 | 00:00:00 | |
| ARGUS2 | 2026-09-01 00:52:34 | 27.61697 | -82.57509 | 12° | 20km/h | 16006m | -7.0m/s | -68.2°C | 0% | 0hPa | 0V | 00:00:00 | 00:00:00 | 00:00:00 | |
| ARGUS2 | 2026-09-01 00:52:13 | 27.61603 | -82.57512 | 25° | 20km/h | 16128m | -5.8m/s | -68.1°C | 0% | 0hPa | 0V | 00:00:00 | 00:00:00 | 00:00:00 | |
| ARGUS2 | 2026-09-01 00:51:53 | 27.61538 | -82.57565 | 74° | 15km/h | 16256m | -5.8m/s | -68.3°C | 0% | 0hPa | 0V | 00:00:00 | 00:00:00 | 00:00:00 | |
| ARGUS2 | 2026-09-01 00:51:32 | 27.61531 | -82.57599 | 167° | 7km/h | 16395m | -7.8m/s | -67.7°C | 0% | 0hPa | 0V | 00:00:00 | 00:00:00 | 00:00:00 | |
| ARGUS2 | 2026-09-01 00:51:12 | 27.61566 | -82.57608 | 139° | 22km/h | 16560m | -7.9m/s | -67.4°C | 0% | 0hPa | 0V | 00:00:00 | 00:00:00 | 00:00:00 | |
| ARGUS2 | 2026-09-01 00:50:50 | 27.61647 | -82.57668 | 171° | 33km/h | 16729m | -8.1m/s | -66.5°C | 0% | 0hPa | 0V | 00:00:00 | 00:00:00 | 00:00:00 | |
| ARGUS2 | 2026-09-01 00:50:30 | 27.61759 | -82.57759 | 142° | 20km/h | 16888m | -8.6m/s | -67.6°C | 0% | 0hPa | 0V | 00:00:00 | 00:00:00 | 00:00:00 | |
| ARGUS2 | 2026-09-01 00:50:09 | 27.61825 | -82.57829 | 126° | 13km/h | 17058m | -7.4m/s | -67.6°C | 0% | 0hPa | 0V | 00:00:00 | 00:00:00 | 00:00:00 | |
| ARGUS2 | 2026-09-01 00:49:49 | 27.61904 | -82.57841 | 179° | 37km/h | 17235m | -8.9m/s | -67.6°C | 0% | 0hPa | 0V | 00:00:00 | 00:00:00 | 00:00:00 | |
| ARGUS2 | 2026-09-01 00:49:08 | 27.62034 | -82.57725 | 236° | 16km/h | 17599m | -7.9m/s | -69.3°C | 0% | 0hPa | 0V | 00:00:00 | 00:00:00 | 00:00:00 | |
| ARGUS2 | 2026-09-01 00:48:48 | 27.62027 | -82.57644 | 248° | 26km/h | 17780m | -9.4m/s | -69.9°C | 0% | 0hPa | 0V | 00:00:00 | 00:00:00 | 00:00:00 | |
| ARGUS2 | 2026-09-01 00:48:27 | 27.62088 | -82.57588 | 155° | 16km/h | 17953m | -9.0m/s | -68.8°C | 0% | 0hPa | 0V | 00:00:00 | 00:00:00 | 00:00:00 | |
| ARGUS2 | 2026-09-01 00:48:06 | 27.62121 | -82.57472 | 264° | 15km/h | 18142m | -9.8m/s | -67.1°C | 0% | 0hPa | 0V | 00:00:00 | 00:00:00 | 00:00:00 | |
| ARGUS2 | 2026-09-01 00:47:46 | 27.62148 | -82.57336 | 211° | 40km/h | 18337m | -10.3m/s | -67.3°C | 0% | 0hPa | 0V | 00:00:00 | 00:00:00 | 00:00:00 | |
| ARGUS2 | 2026-09-01 00:47:26 | 27.62109 | -82.57110 | 272° | 86km/h | 18554m | -10.3m/s | -67.4°C | 0% | 0hPa | 0V | 00:00:00 | 00:00:00 | 00:00:00 | |
| ARGUS2 | 2026-09-01 00:47:05 | 27.62043 | -82.56953 | 26° | 27km/h | 18746m | -11.9m/s | -65.9°C | 0% | 0hPa | 0V | 00:00:00 | 00:00:00 | 00:00:00 | |
| ARGUS2 | 2026-09-01 00:46:45 | 27.62138 | -82.56809 | 256° | 47km/h | 18949m | -9.5m/s | -63.7°C | 0% | 0hPa | 0V | 00:00:00 | 00:00:00 | 00:00:00 | |
| ARGUS2 | 2026-09-01 00:46:24 | 27.62149 | -82.56547 | 282° | 37km/h | 19182m | -11.4m/s | -65.0°C | 0% | 0hPa | 0V | 00:00:00 | 00:00:00 | 00:00:00 | |
| ARGUS2 | 2026-09-01 00:46:04 | 27.62153 | -82.56335 | 210° | 35km/h | 19437m | -9.5m/s | -65.4°C | 0% | 0hPa | 0V | 00:00:00 | 00:00:00 | 00:00:00 | |
| ARGUS2 | 2026-09-01 00:45:43 | 27.62171 | -82.56110 | 247° | 35km/h | 19669m | -11.6m/s | -64.4°C | 0% | 0hPa | 0V | 00:00:00 | 00:00:00 | 00:00:00 | |
| ARGUS2 | 2026-09-01 00:45:23 | 27.62124 | -82.55939 | 344° | 37km/h | 19910m | -11.5m/s | -63.9°C | 0% | 0hPa | 0V | 00:00:00 | 00:00:00 | 00:00:00 | |
| ARGUS2 | 2026-09-01 00:45:01 | 27.62104 | -82.55845 | 262° | 29km/h | 20116m | -6.9m/s | -61.4°C | 0% | 0hPa | 0V | 00:00:00 | 00:00:00 | 00:00:00 | |
| ARGUS2 | 2026-09-01 00:44:41 | 27.62147 | -82.55694 | 222° | 40km/h | 20334m | -11.8m/s | -60.2°C | 0% | 0hPa | 0V | 00:00:00 | 00:00:00 | 00:00:00 | |
| ARGUS2 | 2026-09-01 00:44:20 | 27.62222 | -82.55543 | 262° | 31km/h | 20556m | -12.0m/s | -58.8°C | 0% | 0hPa | 0V | 00:00:00 | 00:00:00 | 00:00:00 | |
| ARGUS2 | 2026-09-01 00:44:00 | 27.62271 | -82.55321 | 265° | 60km/h | 20798m | -12.1m/s | -57.7°C | 0% | 0hPa | 0V | 00:00:00 | 00:00:00 | 00:00:00 | |
| ARGUS2 | 2026-09-01 00:43:40 | 27.62229 | -82.55070 | 281° | 40km/h | 21058m | -16.8m/s | -57.7°C | 0% | 0hPa | 0V | 00:00:00 | 00:00:00 | 00:00:00 | |
| ARGUS2 | 2026-09-01 00:43:19 | 27.62258 | -82.54879 | 279° | 42km/h | 21269m | -11.1m/s | -57.2°C | 0% | 0hPa | 0V | 00:00:00 | 00:00:00 | 00:00:00 | |
| ARGUS2 | 2026-09-01 00:42:58 | 27.62232 | -82.54720 | 302° | 20km/h | 21495m | 3.0m/s | -58.2°C | 0% | 0hPa | 0V | 00:00:00 | 00:00:00 | 00:00:00 | |
| ARGUS2 | 2026-09-01 00:42:47 | 27.62202 | -82.54613 | 285° | 22km/h | 21449m | 2.1m/s | -58.1°C | 0% | 0hPa | 0V | 00:00:00 | 00:00:00 | 00:00:00 | |
| ARGUS2 | 2026-09-01 00:42:18 | 27.62147 | -82.54446 | 288° | 38km/h | 21408m | 1.4m/s | -58.0°C | 0% | 0hPa | 0V | 00:00:00 | 00:00:00 | 00:00:00 | |
| ARGUS2 | 2026-09-01 00:41:57 | 27.62116 | -82.54259 | 270° | 27km/h | 21368m | 2.2m/s | -57.9°C | 0% | 0hPa | 0V | 00:00:00 | 00:00:00 | 00:00:00 | |
| ARGUS2 | 2026-09-01 00:41:37 | 27.62105 | -82.54065 | 271° | 31km/h | 21324m | 2.7m/s | -57.7°C | 0% | 0hPa | 0V | 00:00:00 | 00:00:00 | 00:00:00 | |
| ARGUS2 | 2026-09-01 00:41:16 | 27.62114 | -82.53866 | 264° | 40km/h | 21278m | 2.5m/s | -58.2°C | 0% | 0hPa | 0V | 00:00:00 | 00:00:00 | 00:00:00 | |
| ARGUS2 | 2026-09-01 00:40:56 | 27.62165 | -82.53653 | 253° | 33km/h | 21222m | 2.7m/s | -58.4°C | 0% | 0hPa | 0V | 00:00:00 | 00:00:00 | 00:00:00 | |
| ARGUS2 | 2026-09-01 00:40:35 | 27.62212 | -82.53440 | 258° | 44km/h | 21159m | 3.0m/s | -58.4°C | 0% | 0hPa | 0V | 00:00:00 | 00:00:00 | 00:00:00 | |
| ARGUS2 | 2026-09-01 00:40:15 | 27.62207 | -82.53223 | 278° | 29km/h | 21086m | 3.3m/s | -58.6°C | 0% | 0hPa | 0V | 00:00:00 | 00:00:00 | 00:00:00 | |
| ARGUS2 | 2026-09-01 00:39:54 | 27.62180 | -82.52997 | 281° | 47km/h | 21014m | 3.1m/s | -58.3°C | 0% | 0hPa | 0V | 00:00:00 | 00:00:00 | 00:00:00 | |
| ARGUS2 | 2026-09-01 00:39:34 | 27.62135 | -82.52734 | 284° | 46km/h | 20940m | 3.3m/s | -58.1°C | 0% | 0hPa | 0V | 00:00:00 | 00:00:00 | 00:00:00 | |
| ARGUS2 | 2026-09-01 00:39:13 | 27.62120 | -82.52478 | 270° | 55km/h | 20876m | 3.2m/s | -58.2°C | 0% | 0hPa | 0V | 00:00:00 | 00:00:00 | 00:00:00 | |
| ARGUS2 | 2026-09-01 00:38:32 | 27.62200 | -82.51866 | 257° | 53km/h | 20775m | 1.5m/s | -58.5°C | 0% | 0hPa | 0V | 00:00:00 | 00:00:00 | 00:00:00 | |
| ARGUS2 | 2026-09-01 00:38:11 | 27.62272 | -82.51627 | 249° | 42km/h | 20741m | 2.3m/s | -59.0°C | 0% | 0hPa | 0V | 00:00:00 | 00:00:00 | 00:00:00 | |
| ARGUS2 | 2026-09-01 00:37:50 | 27.62353 | -82.51385 | 242° | 40km/h | 20712m | 1.1m/s | -59.3°C | 0% | 0hPa | 0V | 00:00:00 | 00:00:00 | 00:00:00 | |
| ARGUS2 | 2026-09-01 00:37:30 | 27.62454 | -82.51189 | 233° | 33km/h | 20682m | 2.0m/s | -60.0°C | 0% | 0hPa | 0V | 00:00:00 | 00:00:00 | 00:00:00 | |
| ARGUS2 | 2026-09-01 00:37:10 | 27.62532 | -82.51032 | 238° | 29km/h | 20643m | 1.8m/s | -60.2°C | 0% | 0hPa | 0V | 00:00:00 | 00:00:00 | 00:00:00 | |
| ARGUS2 | 2026-09-01 00:36:49 | 27.62621 | -82.50901 | 232° | 33km/h | 20598m | 1.5m/s | -60.4°C | 0% | 0hPa | 0V | 00:00:00 | 00:00:00 | 00:00:00 | |
| ARGUS2 | 2026-09-01 00:36:29 | 27.62708 | -82.50748 | 234° | 35km/h | 20547m | 1.9m/s | -60.6°C | 0% | 0hPa | 0V | 00:00:00 | 00:00:00 | 00:00:00 | |
| ARGUS2 | 2026-09-01 00:36:07 | 27.62803 | -82.50616 | 211° | 24km/h | 20491m | 2.8m/s | -61.1°C | 0% | 0hPa | 0V | 00:00:00 | 00:00:00 | 00:00:00 | |
| ARGUS2 | 2026-09-01 00:35:46 | 27.62898 | -82.50504 | 254° | 18km/h | 20433m | 3.2m/s | -61.3°C | 0% | 0hPa | 0V | 00:00:00 | 00:00:00 | 00:00:00 | |
| ARGUS2 | 2026-09-01 00:35:26 | 27.62952 | -82.50387 | 237° | 24km/h | 20370m | 2.6m/s | -61.1°C | 0% | 0hPa | 0V | 00:00:00 | 00:00:00 | 00:00:00 | |
| ARGUS2 | 2026-09-01 00:35:05 | 27.62973 | -82.50282 | 261° | 22km/h | 20314m | 2.7m/s | -60.9°C | 0% | 0hPa | 0V | 00:00:00 | 00:00:00 | 00:00:00 | |
| ARGUS2 | 2026-09-01 00:34:44 | 27.62966 | -82.50171 | 295° | 24km/h | 20264m | 2.3m/s | -60.8°C | 0% | 0hPa | 0V | 00:00:00 | 00:00:00 | 00:00:00 | |
| ARGUS2 | 2026-09-01 00:34:24 | 27.62958 | -82.50004 | 260° | 33km/h | 20210m | 2.5m/s | -61.4°C | 0% | 0hPa | 0V | 00:00:00 | 00:00:00 | 00:00:00 | |
| ARGUS2 | 2026-09-01 00:34:03 | 27.62985 | -82.49830 | 263° | 26km/h | 20162m | 2.0m/s | -61.7°C | 0% | 0hPa | 0V | 00:00:00 | 00:00:00 | 00:00:00 | |
| ARGUS2 | 2026-09-01 00:33:43 | 27.63010 | -82.49673 | 265° | 26km/h | 20120m | 1.9m/s | -61.9°C | 0% | 0hPa | 0V | 00:00:00 | 00:00:00 | 00:00:00 | |
| ARGUS2 | 2026-09-01 00:33:20 | 27.63011 | -82.49547 | 276° | 18km/h | 20075m | 2.4m/s | -62.2°C | 0% | 0hPa | 0V | 00:00:00 | 00:00:00 | 00:00:00 | |
| ARGUS2 | 2026-09-01 00:33:00 | 27.63007 | -82.49453 | 274° | 18km/h | 20033m | 2.0m/s | -62.5°C | 0% | 0hPa | 0V | 00:00:00 | 00:00:00 | 00:00:00 | |
| ARGUS2 | 2026-09-01 00:32:39 | 27.62977 | -82.49387 | 292° | 13km/h | 19988m | 2.3m/s | -62.8°C | 0% | 0hPa | 0V | 00:00:00 | 00:00:00 | 00:00:00 | |
| ARGUS2 | 2026-09-01 00:32:19 | 27.62936 | -82.49303 | 306° | 22km/h | 19938m | 2.8m/s | -63.8°C | 0% | 0hPa | 0V | 00:00:00 | 00:00:00 | 00:00:00 | |
| ARGUS2 | 2026-09-01 00:31:58 | 27.62882 | -82.49187 | 309° | 27km/h | 19887m | 3.4m/s | -63.9°C | 0% | 0hPa | 0V | 00:00:00 | 00:00:00 | 00:00:00 | |
| ARGUS2 | 2026-09-01 00:31:38 | 27.62791 | -82.49066 | 326° | 24km/h | 19828m | 2.4m/s | -63.8°C | 0% | 0hPa | 0V | 00:00:00 | 00:00:00 | 00:00:00 | |
| ARGUS2 | 2026-09-01 00:30:57 | 27.62560 | -82.48780 | 304° | 37km/h | 19714m | 1.9m/s | -64.2°C | 0% | 0hPa | 0V | 00:00:00 | 00:00:00 | 00:00:00 | |
| ARGUS2 | 2026-09-01 00:30:35 | 27.62484 | -82.48580 | 276° | 33km/h | 19649m | 3.2m/s | -64.0°C | 0% | 0hPa | 0V | 00:00:00 | 00:00:00 | 00:00:00 | |
| ARGUS2 | 2026-09-01 00:30:15 | 27.62420 | -82.48380 | 305° | 33km/h | 19589m | 2.3m/s | -63.8°C | 0% | 0hPa | 0V | 00:00:00 | 00:00:00 | 00:00:00 | |
| ARGUS2 | 2026-09-01 00:29:55 | 27.62392 | -82.48191 | 281° | 35km/h | 19524m | 3.4m/s | -64.4°C | 0% | 0hPa | 0V | 00:00:00 | 00:00:00 | 00:00:00 | |
| ARGUS2 | 2026-09-01 00:29:34 | 27.62386 | -82.47984 | 257° | 38km/h | 19460m | 3.6m/s | -64.1°C | 0% | 0hPa | 0V | 00:00:00 | 00:00:00 | 00:00:00 | |
| ARGUS2 | 2026-09-01 00:29:14 | 27.62411 | -82.47787 | 256° | 35km/h | 19391m | 3.1m/s | -64.3°C | 0% | 0hPa | 0V | 00:00:00 | 00:00:00 | 00:00:00 | |
| ARGUS2 | 2026-09-01 00:28:53 | 27.62477 | -82.47631 | 238° | 29km/h | 19334m | 2.6m/s | -64.3°C | 0% | 0hPa | 0V | 00:00:00 | 00:00:00 | 00:00:00 | |
| ARGUS2 | 2026-09-01 00:28:33 | 27.62554 | -82.47477 | 246° | 33km/h | 19279m | 2.3m/s | -64.4°C | 0% | 0hPa | 0V | 00:00:00 | 00:00:00 | 00:00:00 | |
| ARGUS2 | 2026-09-01 00:28:12 | 27.62616 | -82.47314 | 252° | 31km/h | 19230m | 2.5m/s | -64.3°C | 0% | 0hPa | 0V | 00:00:00 | 00:00:00 | 00:00:00 | |
| ARGUS2 | 2026-09-01 00:27:51 | 27.62663 | -82.47148 | 257° | 35km/h | 19176m | 2.5m/s | -64.3°C | 0% | 0hPa | 0V | 00:00:00 | 00:00:00 | 00:00:00 | |
| ARGUS2 | 2026-09-01 00:27:30 | 27.62658 | -82.46925 | 269° | 40km/h | 19127m | 2.4m/s | -64.3°C | 0% | 0hPa | 0V | 00:00:00 | 00:00:00 | 00:00:00 | |
| ARGUS2 | 2026-09-01 00:27:11 | 27.62661 | -82.46707 | 265° | 46km/h | 19080m | 2.3m/s | -64.1°C | 0% | 0hPa | 0V | 00:00:00 | 00:00:00 | 00:00:00 | |
| ARGUS2 | 2026-09-01 00:26:49 | 27.62706 | -82.46490 | 257° | 35km/h | 19033m | 2.0m/s | -63.9°C | 0% | 0hPa | 0V | 00:00:00 | 00:00:00 | 00:00:00 | |
| ARGUS2 | 2026-09-01 00:26:29 | 27.62750 | -82.46297 | 256° | 37km/h | 18988m | 2.4m/s | -63.8°C | 0% | 0hPa | 0V | 00:00:00 | 00:00:00 | 00:00:00 | |
| ARGUS2 | 2026-09-01 00:26:09 | 27.62799 | -82.46088 | 253° | 37km/h | 18938m | 2.1m/s | -64.0°C | 0% | 0hPa | 0V | 00:00:00 | 00:00:00 | 00:00:00 | |
| ARGUS2 | 2026-09-01 00:25:48 | 27.62876 | -82.45915 | 237° | 31km/h | 18890m | 3.0m/s | -64.5°C | 0% | 0hPa | 0V | 00:00:00 | 00:00:00 | 00:00:00 | |
| ARGUS2 | 2026-09-01 00:25:28 | 27.62977 | -82.45769 | 234° | 35km/h | 18835m | 2.1m/s | -65.1°C | 0% | 0hPa | 0V | 00:00:00 | 00:00:00 | 00:00:00 | |
| ARGUS2 | 2026-09-01 00:25:07 | 27.63053 | -82.45681 | 226° | 18km/h | 18783m | 3.0m/s | -65.9°C | 0% | 0hPa | 0V | 00:00:00 | 00:00:00 | 00:00:00 | |
| ARGUS2 | 2026-09-01 00:24:46 | 27.63073 | -82.45607 | 265° | 5km/h | 18727m | 3.0m/s | -66.8°C | 0% | 0hPa | 0V | 00:00:00 | 00:00:00 | 00:00:00 | |
| ARGUS2 | 2026-09-01 00:24:26 | 27.63051 | -82.45506 | 293° | 31km/h | 18673m | 2.8m/s | -67.3°C | 0% | 0hPa | 0V | 00:00:00 | 00:00:00 | 00:00:00 | |
| ARGUS2 | 2026-09-01 00:24:05 | 27.62983 | -82.45336 | 298° | 35km/h | 18609m | 2.4m/s | -67.2°C | 0% | 0hPa | 0V | 00:00:00 | 00:00:00 | 00:00:00 | |
| ARGUS2 | 2026-09-01 00:23:45 | 27.62880 | -82.45138 | 300° | 42km/h | 18555m | 2.8m/s | -67.0°C | 0% | 0hPa | 0V | 00:00:00 | 00:00:00 | 00:00:00 | |
| ARGUS2 | 2026-09-01 00:23:24 | 27.62787 | -82.44892 | 287° | 38km/h | 18500m | 2.2m/s | -67.5°C | 0% | 0hPa | 0V | 00:00:00 | 00:00:00 | 00:00:00 | |
| ARGUS2 | 2026-09-01 00:23:04 | 27.62734 | -82.44675 | 280° | 44km/h | 18456m | 2.2m/s | -67.8°C | 0% | 0hPa | 0V | 00:00:00 | 00:00:00 | 00:00:00 | |
| ARGUS2 | 2026-09-01 00:22:44 | 27.62709 | -82.44440 | 277° | 38km/h | 18406m | 2.6m/s | -67.8°C | 0% | 0hPa | 0V | 00:00:00 | 00:00:00 | 00:00:00 | |
| ARGUS2 | 2026-09-01 00:22:23 | 27.62706 | -82.44250 | 275° | 33km/h | 18355m | 2.8m/s | -67.9°C | 0% | 0hPa | 0V | 00:00:00 | 00:00:00 | 00:00:00 | |
| ARGUS2 | 2026-09-01 00:22:03 | 27.62740 | -82.44079 | 231° | 27km/h | 18301m | 3.1m/s | -67.9°C | 0% | 0hPa | 0V | 00:00:00 | 00:00:00 | 00:00:00 | |
| ARGUS2 | 2026-09-01 00:21:41 | 27.62810 | -82.43923 | 249° | 29km/h | 18245m | 3.1m/s | -68.0°C | 0% | 0hPa | 0V | 00:00:00 | 00:00:00 | 00:00:00 | |
| ARGUS2 | 2026-09-01 00:21:21 | 27.62885 | -82.43771 | 231° | 31km/h | 18184m | 3.5m/s | -68.6°C | 0% | 0hPa | 0V | 00:00:00 | 00:00:00 | 00:00:00 | |
| ARGUS2 | 2026-09-01 00:21:00 | 27.62999 | -82.43628 | 215° | 26km/h | 18118m | 3.0m/s | -68.7°C | 0% | 0hPa | 0V | 00:00:00 | 00:00:00 | 00:00:00 | |
| ARGUS2 | 2026-09-01 00:20:40 | 27.63138 | -82.43535 | 212° | 37km/h | 18051m | 3.6m/s | -69.1°C | 0% | 0hPa | 0V | 00:00:00 | 00:00:00 | 00:00:00 | |
| ARGUS2 | 2026-09-01 00:20:19 | 27.63314 | -82.43488 | 198° | 33km/h | 17986m | 3.2m/s | -69.3°C | 0% | 0hPa | 0V | 00:00:00 | 00:00:00 | 00:00:00 | |
| ARGUS2 | 2026-09-01 00:20:00 | 27.63454 | -82.43470 | 198° | 13km/h | 17930m | 2.5m/s | -69.8°C | 0% | 0hPa | 0V | 00:00:00 | 00:00:00 | 00:00:00 | |
| ARGUS2 | 2026-09-01 00:19:39 | 27.63586 | -82.43452 | 177° | 24km/h | 17871m | 2.9m/s | -69.5°C | 0% | 0hPa | 0V | 00:00:00 | 00:00:00 | 00:00:00 | |
| ARGUS2 | 2026-09-01 00:19:18 | 27.63689 | -82.43445 | 196° | 13km/h | 17816m | 2.7m/s | -69.2°C | 0% | 0hPa | 0V | 00:00:00 | 00:00:00 | 00:00:00 | |
| ARGUS2 | 2026-09-01 00:18:58 | 27.63776 | -82.43429 | 173° | 24km/h | 17757m | 2.7m/s | -69.3°C | 0% | 0hPa | 0V | 00:00:00 | 00:00:00 | 00:00:00 | |
| ARGUS2 | 2026-09-01 00:18:37 | 27.63819 | -82.43394 | 212° | 16km/h | 17702m | 2.6m/s | -69.8°C | 0% | 0hPa | 0V | 00:00:00 | 00:00:00 | 00:00:00 | |
| ARGUS2 | 2026-09-01 00:18:17 | 27.63839 | -82.43326 | 235° | 22km/h | 17644m | 2.9m/s | -69.4°C | 0% | 0hPa | 0V | 00:00:00 | 00:00:00 | 00:00:00 | |
| ARGUS2 | 2026-09-01 00:17:56 | 27.63878 | -82.43268 | 245° | 13km/h | 17588m | 2.8m/s | -69.1°C | 0% | 0hPa | 0V | 00:00:00 | 00:00:00 | 00:00:00 | |
| ARGUS2 | 2026-09-01 00:17:36 | 27.63927 | -82.43208 | 218° | 15km/h | 17536m | 2.5m/s | -68.7°C | 0% | 0hPa | 0V | 00:00:00 | 00:00:00 | 00:00:00 | |
| ARGUS2 | 2026-09-01 00:17:15 | 27.63974 | -82.43162 | 245° | 13km/h | 17487m | 2.4m/s | -68.4°C | 0% | 0hPa | 0V | 00:00:00 | 00:00:00 | 00:00:00 | |
| ARGUS2 | 2026-09-01 00:16:55 | 27.64038 | -82.43114 | 234° | 9km/h | 17434m | 2.2m/s | -68.1°C | 0% | 0hPa | 0V | 00:00:00 | 00:00:00 | 00:00:00 | |
| ARGUS2 | 2026-09-01 00:16:33 | 27.64121 | -82.43067 | 231° | 11km/h | 17380m | 2.7m/s | -67.7°C | 0% | 0hPa | 0V | 00:00:00 | 00:00:00 | 00:00:00 | |
| ARGUS2 | 2026-09-01 00:16:13 | 27.64201 | -82.43020 | 186° | 7km/h | 17330m | 3.0m/s | -67.3°C | 0% | 0hPa | 0V | 00:00:00 | 00:00:00 | 00:00:00 | |
| ARGUS2 | 2026-09-01 00:15:52 | 27.64285 | -82.42980 | 192° | 15km/h | 17272m | 2.4m/s | -67.0°C | 0% | 0hPa | 0V | 00:00:00 | 00:00:00 | 00:00:00 | |
| ARGUS2 | 2026-09-01 00:15:32 | 27.64369 | -82.42937 | 183° | 22km/h | 17223m | 2.2m/s | -66.8°C | 0% | 0hPa | 0V | 00:00:00 | 00:00:00 | 00:00:00 | |
| ARGUS2 | 2026-09-01 00:15:12 | 27.64457 | -82.42914 | 171° | 27km/h | 17168m | 2.6m/s | -67.0°C | 0% | 0hPa | 0V | 00:00:00 | 00:00:00 | 00:00:00 | |
| ARGUS2 | 2026-09-01 00:14:51 | 27.64549 | -82.42912 | 187° | 20km/h | 17115m | 3.7m/s | -67.3°C | 0% | 0hPa | 0V | 00:00:00 | 00:00:00 | 00:00:00 | |
| ARGUS2 | 2026-09-01 00:14:31 | 27.64622 | -82.42947 | 183° | 11km/h | 17055m | 2.3m/s | -67.0°C | 0% | 0hPa | 0V | 00:00:00 | 00:00:00 | 00:00:00 | |
| ARGUS2 | 2026-09-01 00:14:10 | 27.64690 | -82.42993 | 92° | 11km/h | 16993m | 3.6m/s | -66.7°C | 0% | 0hPa | 0V | 00:00:00 | 00:00:00 | 00:00:00 | |
| ARGUS2 | 2026-09-01 00:13:50 | 27.64730 | -82.43051 | 110° | 16km/h | 16926m | 3.0m/s | -66.5°C | 0% | 0hPa | 0V | 00:00:00 | 00:00:00 | 00:00:00 | |
| ARGUS2 | 2026-09-01 00:13:29 | 27.64759 | -82.43113 | 119° | 18km/h | 16865m | 2.7m/s | -66.9°C | 0% | 0hPa | 0V | 00:00:00 | 00:00:00 | 00:00:00 | |
| ARGUS2 | 2026-09-01 00:13:08 | 27.64816 | -82.43182 | 163° | 27km/h | 16796m | 3.2m/s | -67.3°C | 0% | 0hPa | 0V | 00:00:00 | 00:00:00 | 00:00:00 | |
| ARGUS2 | 2026-09-01 00:12:48 | 27.64901 | -82.43256 | 170° | 18km/h | 16729m | 3.1m/s | -67.3°C | 0% | 0hPa | 0V | 00:00:00 | 00:00:00 | 00:00:00 | |
| ARGUS2 | 2026-09-01 00:12:28 | 27.64986 | -82.43337 | 122° | 9km/h | 16659m | 3.7m/s | -67.8°C | 0% | 0hPa | 0V | 00:00:00 | 00:00:00 | 00:00:00 | |
| ARGUS2 | 2026-09-01 00:12:07 | 27.65022 | -82.43430 | 147° | 24km/h | 16595m | 2.8m/s | -67.6°C | 0% | 0hPa | 0V | 00:00:00 | 00:00:00 | 00:00:00 | |
| ARGUS2 | 2026-09-01 00:11:47 | 27.65059 | -82.43498 | 150° | 13km/h | 16533m | 2.9m/s | -67.7°C | 0% | 0hPa | 0V | 00:00:00 | 00:00:00 | 00:00:00 | |
| ARGUS2 | 2026-09-01 00:11:25 | 27.65087 | -82.43520 | 129° | 15km/h | 16472m | 2.1m/s | -68.1°C | 0% | 0hPa | 0V | 00:00:00 | 00:00:00 | 00:00:00 | |
| ARGUS2 | 2026-09-01 00:11:05 | 27.65109 | -82.43545 | 73° | 11km/h | 16419m | 2.5m/s | -68.3°C | 0% | 0hPa | 0V | 00:00:00 | 00:00:00 | 00:00:00 | |
| ARGUS2 | 2026-09-01 00:10:45 | 27.65102 | -82.43605 | 33° | 9km/h | 16363m | 2.3m/s | -68.6°C | 0% | 0hPa | 0V | 00:00:00 | 00:00:00 | 00:00:00 | |
| ARGUS2 | 2026-09-01 00:10:24 | 27.65078 | -82.43687 | 105° | 13km/h | 16311m | 3.1m/s | -68.7°C | 0% | 0hPa | 0V | 00:00:00 | 00:00:00 | 00:00:00 | |
| ARGUS2 | 2026-09-01 00:10:04 | 27.65028 | -82.43770 | 50° | 11km/h | 16250m | 2.4m/s | -68.5°C | 0% | 0hPa | 0V | 00:00:00 | 00:00:00 | 00:00:00 | |
| ARGUS2 | 2026-09-01 00:09:43 | 27.64972 | -82.43816 | 55° | 15km/h | 16192m | 3.5m/s | -68.0°C | 0% | 0hPa | 0V | 00:00:00 | 00:00:00 | 00:00:00 | |
| ARGUS2 | 2026-09-01 00:09:23 | 27.64903 | -82.43844 | 40° | 18km/h | 16124m | 3.1m/s | -67.6°C | 0% | 0hPa | 0V | 00:00:00 | 00:00:00 | 00:00:00 | |
| ARGUS2 | 2026-09-01 00:09:02 | 27.64853 | -82.43837 | 351° | 20km/h | 16061m | 3.1m/s | -67.7°C | 0% | 0hPa | 0V | 00:00:00 | 00:00:00 | 00:00:00 | |
| ARGUS2 | 2026-09-01 00:08:42 | 27.64791 | -82.43809 | 319° | 27km/h | 15997m | 2.6m/s | -67.8°C | 0% | 0hPa | 0V | 00:00:00 | 00:00:00 | 00:00:00 | |
| ARGUS2 | 2026-09-01 00:08:21 | 27.64714 | -82.43782 | 325° | 13km/h | 15925m | 3.6m/s | -69.0°C | 0% | 0hPa | 0V | 00:00:00 | 00:00:00 | 00:00:00 | |
| ARGUS2 | 2026-09-01 00:08:01 | 27.64624 | -82.43723 | 354° | 16km/h | 15847m | 4.1m/s | -68.6°C | 0% | 0hPa | 0V | 00:00:00 | 00:00:00 | 00:00:00 | |
| ARGUS2 | 2026-09-01 00:07:40 | 27.64527 | -82.43613 | 283° | 35km/h | 15776m | 3.4m/s | -68.5°C | 0% | 0hPa | 0V | 00:00:00 | 00:00:00 | 00:00:00 | |
| ARGUS2 | 2026-09-01 00:07:20 | 27.64436 | -82.43445 | 291° | 42km/h | 15711m | 3.4m/s | -68.1°C | 0% | 0hPa | 0V | 00:00:00 | 00:00:00 | 00:00:00 | |
| ARGUS2 | 2026-09-01 00:06:59 | 27.64366 | -82.43281 | 302° | 26km/h | 15646m | 3.5m/s | -68.6°C | 0% | 0hPa | 0V | 00:00:00 | 00:00:00 | 00:00:00 | |
| ARGUS2 | 2026-09-01 00:06:39 | 27.64328 | -82.43123 | 269° | 16km/h | 15582m | 3.1m/s | -68.3°C | 0% | 0hPa | 0V | 00:00:00 | 00:00:00 | 00:00:00 | |
| ARGUS2 | 2026-09-01 00:06:18 | 27.64309 | -82.42971 | 267° | 29km/h | 15514m | 2.5m/s | -68.6°C | 0% | 0hPa | 0V | 00:00:00 | 00:00:00 | 00:00:00 | |
| ARGUS2 | 2026-09-01 00:05:57 | 27.64266 | -82.42859 | 305° | 35km/h | 15455m | 3.2m/s | -68.9°C | 0% | 0hPa | 0V | 00:00:00 | 00:00:00 | 00:00:00 | |
| ARGUS2 | 2026-09-01 00:05:38 | 27.64188 | -82.42714 | 323° | 31km/h | 15390m | 3.4m/s | -68.8°C | 0% | 0hPa | 0V | 00:00:00 | 00:00:00 | 00:00:00 | |
| ARGUS2 | 2026-09-01 00:05:17 | 27.64094 | -82.42583 | 306° | 38km/h | 15331m | 3.2m/s | -68.7°C | 0% | 0hPa | 0V | 00:00:00 | 00:00:00 | 00:00:00 | |
| ARGUS2 | 2026-09-01 00:04:56 | 27.64007 | -82.42451 | 316° | 24km/h | 15274m | 3.5m/s | -69.3°C | 0% | 0hPa | 0V | 00:00:00 | 00:00:00 | 00:00:00 | |
| ARGUS2 | 2026-09-01 00:04:36 | 27.63953 | -82.42337 | 300° | 37km/h | 15215m | 2.5m/s | -69.5°C | 0% | 0hPa | 0V | 00:00:00 | 00:00:00 | 00:00:00 | |
| ARGUS2 | 2026-09-01 00:04:15 | 27.63937 | -82.42233 | 265° | 15km/h | 15149m | 2.8m/s | -69.2°C | 0% | 0hPa | 0V | 00:00:00 | 00:00:00 | 00:00:00 | |
| ARGUS2 | 2026-09-01 00:03:55 | 27.63939 | -82.42140 | 236° | 24km/h | 15095m | 2.6m/s | -69.8°C | 0% | 0hPa | 0V | 00:00:00 | 00:00:00 | 00:00:00 | |
| ARGUS2 | 2026-09-01 00:03:31 | 27.64049 | -82.41993 | 259° | 16km/h | 14991m | 2.4m/s | -69.7°C | 0% | 0hPa | 0V | 00:00:00 | 00:00:00 | 00:00:00 | |
| ARGUS2 | 2026-09-01 00:03:14 | 27.64108 | -82.41930 | 187° | 22km/h | 14939m | 2.8m/s | -69.4°C | 0% | 0hPa | 0V | 00:00:00 | 00:00:00 | 00:00:00 | |
| ARGUS2 | 2026-09-01 00:02:45 | 27.64162 | -82.41884 | 188° | 11km/h | 14890m | 2.6m/s | -69.2°C | 0% | 0hPa | 0V | 00:00:00 | 00:00:00 | 00:00:00 | |
| ARGUS2 | 2026-09-01 00:02:15 | 27.64232 | -82.41864 | 210° | 24km/h | 14838m | 3.5m/s | -69.5°C | 0% | 0hPa | 0V | 00:00:00 | 00:00:00 | 00:00:00 | |
| ARGUS2 | 2026-09-01 00:01:41 | 27.64383 | -82.41884 | 215° | 18km/h | 14729m | 4.1m/s | -69.1°C | 0% | 0hPa | 0V | 00:00:00 | 00:00:00 | 00:00:00 | |
| ARGUS2 | 2026-09-01 00:01:13 | 27.64433 | -82.41882 | 185° | 7km/h | 14669m | 2.2m/s | -69.1°C | 0% | 0hPa | 0V | 00:00:00 | 00:00:00 | 00:00:00 | |
| ARGUS2 | 2026-09-01 00:00:55 | 27.64446 | -82.41853 | 142° | 11km/h | 14619m | 2.8m/s | -69.0°C | 0% | 0hPa | 0V | 00:00:00 | 00:00:00 | 00:00:00 | |
| ARGUS2 | 2026-09-01 00:00:30 | 27.64450 | -82.41837 | 146° | 4km/h | 14559m | 3.0m/s | -68.6°C | 0% | 0hPa | 0V | 00:00:00 | 00:00:00 | 00:00:00 | |
| ARGUS2 | 2026-09-01 00:00:09 | 27.64454 | -82.41836 | 146° | 9km/h | 14496m | 2.0m/s | -68.3°C | 0% | 0hPa | 0V | 00:00:00 | 00:00:00 | 00:00:00 | |
| ARGUS2 | 2026-08-31 23:59:48 | 27.64454 | -82.41829 | 188° | 5km/h | 14424m | 5.4m/s | -67.7°C | 0% | 0hPa | 0V | 00:00:00 | 00:00:00 | 00:00:00 | |
| ARGUS2 | 2026-08-31 23:59:27 | 27.64465 | -82.41801 | 247° | 16km/h | 14354m | 4.3m/s | -67.1°C | 0% | 0hPa | 0V | 00:00:00 | 00:00:00 | 00:00:00 | |
| ARGUS2 | 2026-08-31 23:59:06 | 27.64466 | -82.41783 | 305° | 16km/h | 14285m | 2.8m/s | -66.5°C | 0% | 0hPa | 0V | 00:00:00 | 00:00:00 | 00:00:00 | |
| ARGUS2 | 2026-08-31 23:58:46 | 27.64460 | -82.41750 | 171° | 5km/h | 14225m | 2.1m/s | -66.1°C | 0% | 0hPa | 0V | 00:00:00 | 00:00:00 | 00:00:00 | |
| ARGUS2 | 2026-08-31 23:58:26 | 27.64432 | -82.41723 | 315° | 16km/h | 14164m | 3.2m/s | -65.9°C | 0% | 0hPa | 0V | 00:00:00 | 00:00:00 | 00:00:00 | |
| ARGUS2 | 2026-08-31 23:58:05 | 27.64398 | -82.41713 | 356° | 15km/h | 14095m | 5.0m/s | -65.4°C | 0% | 0hPa | 0V | 00:00:00 | 00:00:00 | 00:00:00 | |
| ARGUS2 | 2026-08-31 23:57:44 | 27.64353 | -82.41733 | 53° | 4km/h | 14021m | 3.8m/s | -64.8°C | 0% | 0hPa | 0V | 00:00:00 | 00:00:00 | 00:00:00 | |
| ARGUS2 | 2026-08-31 23:57:24 | 27.64301 | -82.41735 | 24° | 7km/h | 13956m | 2.3m/s | -64.2°C | 0% | 0hPa | 0V | 00:00:00 | 00:00:00 | 00:00:00 | |
| ARGUS2 | 2026-08-31 23:57:03 | 27.64240 | -82.41733 | 340° | 27km/h | 13880m | 5.0m/s | -63.5°C | 0% | 0hPa | 0V | 00:00:00 | 00:00:00 | 00:00:00 | |
| ARGUS2 | 2026-08-31 23:56:43 | 27.64164 | -82.41688 | 333° | 16km/h | 13817m | 1.5m/s | -62.9°C | 0% | 0hPa | 0V | 00:00:00 | 00:00:00 | 00:00:00 | |
| ARGUS2 | 2026-08-31 23:56:23 | 27.64082 | -82.41637 | 352° | 15km/h | 13747m | 3.6m/s | -62.3°C | 0% | 0hPa | 0V | 00:00:00 | 00:00:00 | 00:00:00 | |
| ARGUS2 | 2026-08-31 23:56:01 | 27.64013 | -82.41566 | 302° | 27km/h | 13679m | 2.4m/s | -61.8°C | 0% | 0hPa | 0V | 00:00:00 | 00:00:00 | 00:00:00 | |
| ARGUS2 | 2026-08-31 23:55:41 | 27.63952 | -82.41495 | 336° | 18km/h | 13629m | 2.0m/s | -61.5°C | 0% | 0hPa | 0V | 00:00:00 | 00:00:00 | 00:00:00 | |
| ARGUS2 | 2026-08-31 23:55:20 | 27.63885 | -82.41405 | 328° | 11km/h | 13574m | 2.4m/s | -61.1°C | 0% | 0hPa | 0V | 00:00:00 | 00:00:00 | 00:00:00 | |
| ARGUS2 | 2026-08-31 23:55:00 | 27.63814 | -82.41308 | 295° | 22km/h | 13511m | 5.4m/s | -60.7°C | 0% | 0hPa | 0V | 00:00:00 | 00:00:00 | 00:00:00 | |
| ARGUS2 | 2026-08-31 23:54:40 | 27.63751 | -82.41203 | 312° | 15km/h | 13425m | 3.5m/s | -60.2°C | 0% | 0hPa | 0V | 00:00:00 | 00:00:00 | 00:00:00 | |
| ARGUS2 | 2026-08-31 23:54:19 | 27.63742 | -82.41151 | 247° | 15km/h | 13335m | 6.8m/s | -59.5°C | 0% | 0hPa | 0V | 00:00:00 | 00:00:00 | 00:00:00 | |
| ARGUS2 | 2026-08-31 23:53:59 | 27.63731 | -82.41110 | 256° | 2km/h | 13239m | 2.9m/s | -58.7°C | 0% | 0hPa | 0V | 00:00:00 | 00:00:00 | 00:00:00 | |
| ARGUS2 | 2026-08-31 23:53:39 | 27.63742 | -82.41070 | 218° | 9km/h | 13164m | 3.3m/s | -58.0°C | 0% | 0hPa | 0V | 00:00:00 | 00:00:00 | 00:00:00 | |
| ARGUS2 | 2026-08-31 23:53:18 | 27.63730 | -82.41035 | 320° | 11km/h | 13091m | 2.7m/s | -57.4°C | 0% | 0hPa | 0V | 00:00:00 | 00:00:00 | 00:00:00 | |
| ARGUS2 | 2026-08-31 23:52:57 | 27.63748 | -82.41014 | 347° | 2km/h | 13032m | 3.0m/s | -57.0°C | 0% | 0hPa | 0V | 00:00:00 | 00:00:00 | 00:00:00 | |
| ARGUS2 | 2026-08-31 23:52:37 | 27.63760 | -82.40968 | 279° | 18km/h | 12976m | 3.7m/s | -56.5°C | 0% | 0hPa | 0V | 00:00:00 | 00:00:00 | 00:00:00 | |
| ARGUS2 | 2026-08-31 23:52:16 | 27.63774 | -82.40923 | 257° | 26km/h | 12916m | 5.4m/s | -55.9°C | 0% | 0hPa | 0V | 00:00:00 | 00:00:00 | 00:00:00 | |
| ARGUS2 | 2026-08-31 23:51:56 | 27.63783 | -82.40899 | 313° | 5km/h | 12844m | 1.8m/s | -55.3°C | 0% | 0hPa | 0V | 00:00:00 | 00:00:00 | 00:00:00 | |
| ARGUS2 | 2026-08-31 23:51:35 | 27.63787 | -82.40869 | 342° | 15km/h | 12766m | 3.6m/s | -54.6°C | 0% | 0hPa | 0V | 00:00:00 | 00:00:00 | 00:00:00 | |
| ARGUS2 | 2026-08-31 23:51:15 | 27.63794 | -82.40839 | 316° | 4km/h | 12688m | 4.2m/s | -54.0°C | 0% | 0hPa | 0V | 00:00:00 | 00:00:00 | 00:00:00 | |
| ARGUS2 | 2026-08-31 23:50:54 | 27.63789 | -82.40825 | 324° | 13km/h | 12611m | 3.7m/s | -53.4°C | 0% | 0hPa | 0V | 00:00:00 | 00:00:00 | 00:00:00 | |
| ARGUS2 | 2026-08-31 23:50:37 | 27.63796 | -82.40816 | 134° | 13km/h | 12547m | 3.1m/s | -52.8°C | 0% | 0hPa | 0V | 00:00:00 | 00:00:00 | 00:00:00 | |
| ARGUS2 | 2026-08-31 23:50:12 | 27.63804 | -82.40806 | 263° | 7km/h | 12478m | 3.0m/s | -52.2°C | 0% | 0hPa | 0V | 00:00:00 | 00:00:00 | 00:00:00 | |
| ARGUS2 | 2026-08-31 23:49:52 | 27.63799 | -82.40806 | 238° | 2km/h | 12409m | 3.1m/s | -51.6°C | 0% | 0hPa | 0V | 00:00:00 | 00:00:00 | 00:00:00 | |
| ARGUS2 | 2026-08-31 23:49:32 | 27.63801 | -82.40793 | 235° | 11km/h | 12335m | 4.7m/s | -51.0°C | 0% | 0hPa | 0V | 00:00:00 | 00:00:00 | 00:00:00 | |
| ARGUS2 | 2026-08-31 23:49:11 | 27.63799 | -82.40780 | 257° | 5km/h | 12263m | 3.1m/s | -50.4°C | 0% | 0hPa | 0V | 00:00:00 | 00:00:00 | 00:00:00 | |
| ARGUS2 | 2026-08-31 23:48:51 | 27.63800 | -82.40756 | 71° | 7km/h | 12194m | 3.1m/s | -49.7°C | 0% | 0hPa | 0V | 00:00:00 | 00:00:00 | 00:00:00 | |
| ARGUS2 | 2026-08-31 23:48:31 | 27.63798 | -82.40753 | 317° | 11km/h | 12125m | 2.6m/s | -49.1°C | 0% | 0hPa | 0V | 00:00:00 | 00:00:00 | 00:00:00 | |
| ARGUS2 | 2026-08-31 23:48:10 | 27.63806 | -82.40758 | 309° | 7km/h | 12050m | 2.9m/s | -48.5°C | 0% | 0hPa | 0V | 00:00:00 | 00:00:00 | 00:00:00 | |
| ARGUS2 | 2026-08-31 23:47:49 | 27.63810 | -82.40755 | 82° | 15km/h | 11976m | 3.0m/s | -47.9°C | 0% | 0hPa | 0V | 00:00:00 | 00:00:00 | 00:00:00 | |
| ARGUS2 | 2026-08-31 23:47:29 | 27.63805 | -82.40770 | 0° | 0km/h | 11892m | 2.8m/s | -47.2°C | 0% | 0hPa | 0V | 00:00:00 | 00:00:00 | 00:00:00 | |
| ARGUS2 | 2026-08-31 23:47:08 | 27.63826 | -82.40764 | 326° | 13km/h | 11815m | 4.1m/s | -46.5°C | 0% | 0hPa | 0V | 00:00:00 | 00:00:00 | 00:00:00 | |
| ARGUS2 | 2026-08-31 23:46:48 | 27.63817 | -82.40806 | 73° | 9km/h | 11722m | 3.6m/s | -45.7°C | 0% | 0hPa | 0V | 00:00:00 | 00:00:00 | 00:00:00 | |
| ARGUS2 | 2026-08-31 23:46:07 | 27.63851 | -82.40872 | 128° | 15km/h | 11526m | 3.9m/s | -44.2°C | 0% | 0hPa | 0V | 00:00:00 | 00:00:00 | 00:00:00 | |
| ARGUS2 | 2026-08-31 23:45:46 | 27.63892 | -82.40907 | 156° | 13km/h | 11433m | 5.7m/s | -43.4°C | 0% | 0hPa | 0V | 00:00:00 | 00:00:00 | 00:00:00 | |
| ARGUS2 | 2026-08-31 23:45:25 | 27.63949 | -82.40932 | 188° | 9km/h | 11351m | 2.3m/s | -42.7°C | 0% | 0hPa | 0V | 00:00:00 | 00:00:00 | 00:00:00 | |
| ARGUS2 | 2026-08-31 23:45:05 | 27.63998 | -82.40982 | 153° | 7km/h | 11261m | 6.1m/s | -42.0°C | 0% | 0hPa | 0V | 00:00:00 | 00:00:00 | 00:00:00 | |
| ARGUS2 | 2026-08-31 23:44:44 | 27.64059 | -82.41008 | 119° | 11km/h | 11161m | 5.3m/s | -41.2°C | 0% | 0hPa | 0V | 00:00:00 | 00:00:00 | 00:00:00 | |
| ARGUS2 | 2026-08-31 23:44:23 | 27.64124 | -82.41043 | 145° | 4km/h | 11072m | 3.3m/s | -40.4°C | 0% | 0hPa | 0V | 00:00:00 | 00:00:00 | 00:00:00 | |
| ARGUS2 | 2026-08-31 23:44:04 | 27.64192 | -82.41080 | 169° | 24km/h | 10982m | 4.9m/s | -39.7°C | 0% | 0hPa | 0V | 00:00:00 | 00:00:00 | 00:00:00 | |
| ARGUS2 | 2026-08-31 23:43:43 | 27.64261 | -82.41123 | 135° | 13km/h | 10884m | 6.2m/s | -38.9°C | 0% | 0hPa | 0V | 00:00:00 | 00:00:00 | 00:00:00 | |
| ARGUS2 | 2026-08-31 23:43:22 | 27.64317 | -82.41167 | 178° | 18km/h | 10769m | 7.8m/s | -37.6°C | 0% | 0hPa | 0V | 00:00:00 | 00:00:00 | 00:00:00 | |
| ARGUS2 | 2026-08-31 23:42:41 | 27.64392 | -82.41233 | 130° | 13km/h | 10489m | 6.8m/s | -35.3°C | 0% | 0hPa | 0V | 00:00:00 | 00:00:00 | 00:00:00 | |
| ARGUS2 | 2026-08-31 23:42:21 | 27.64453 | -82.41283 | 101° | 18km/h | 10362m | 6.2m/s | -34.3°C | 0% | 0hPa | 0V | 00:00:00 | 00:00:00 | 00:00:00 | |
| ARGUS2 | 2026-08-31 23:42:00 | 27.64491 | -82.41341 | 145° | 9km/h | 10247m | 5.3m/s | -33.4°C | 0% | 0hPa | 0V | 00:00:00 | 00:00:00 | 00:00:00 | |
| ARGUS2 | 2026-08-31 23:41:40 | 27.64528 | -82.41393 | 162° | 2km/h | 10124m | 5.3m/s | -32.3°C | 0% | 0hPa | 0V | 00:00:00 | 00:00:00 | 00:00:00 | |
| ARGUS2 | 2026-08-31 23:41:19 | 27.64552 | -82.41412 | 144° | 15km/h | 10013m | 4.9m/s | -31.5°C | 0% | 0hPa | 0V | 00:00:00 | 00:00:00 | 00:00:00 | |
| ARGUS2 | 2026-08-31 23:40:59 | 27.64597 | -82.41430 | 102° | 7km/h | 9896m | 5.9m/s | -30.6°C | 0% | 0hPa | 0V | 00:00:00 | 00:00:00 | 00:00:00 | |
| ARGUS2 | 2026-08-31 23:40:38 | 27.64602 | -82.41469 | 96° | 15km/h | 9786m | 5.5m/s | -29.7°C | 0% | 0hPa | 0V | 00:00:00 | 00:00:00 | 00:00:00 | |
| ARGUS2 | 2026-08-31 23:40:18 | 27.64610 | -82.41500 | 111° | 16km/h | 9683m | 5.3m/s | -29.0°C | 0% | 0hPa | 0V | 00:00:00 | 00:00:00 | 00:00:00 | |
| ARGUS2 | 2026-08-31 23:39:56 | 27.64639 | -82.41536 | 117° | 9km/h | 9590m | 2.7m/s | -28.2°C | 0% | 0hPa | 0V | 00:00:00 | 00:00:00 | 00:00:00 | |
| ARGUS2 | 2026-08-31 23:39:36 | 27.64659 | -82.41546 | 165° | 9km/h | 9496m | 4.9m/s | -27.5°C | 0% | 0hPa | 0V | 00:00:00 | 00:00:00 | 00:00:00 | |
| ARGUS2 | 2026-08-31 23:39:15 | 27.64692 | -82.41562 | 205° | 13km/h | 9407m | 3.4m/s | -26.9°C | 0% | 0hPa | 0V | 00:00:00 | 00:00:00 | 00:00:00 | |
| ARGUS2 | 2026-08-31 23:38:55 | 27.64717 | -82.41570 | 360° | 5km/h | 9327m | 3.0m/s | -26.3°C | 0% | 0hPa | 0V | 00:00:00 | 00:00:00 | 00:00:00 | |
| ARGUS2 | 2026-08-31 23:38:35 | 27.64734 | -82.41586 | 73° | 9km/h | 9253m | 3.4m/s | -25.7°C | 0% | 0hPa | 0V | 00:00:00 | 00:00:00 | 00:00:00 | |
| ARGUS2 | 2026-08-31 23:38:14 | 27.64734 | -82.41599 | 110° | 7km/h | 9167m | 4.6m/s | -25.1°C | 0% | 0hPa | 0V | 00:00:00 | 00:00:00 | 00:00:00 | |
| ARGUS2 | 2026-08-31 23:37:54 | 27.64738 | -82.41606 | 189° | 13km/h | 9087m | 3.9m/s | -24.6°C | 0% | 0hPa | 0V | 00:00:00 | 00:00:00 | 00:00:00 | |
| ARGUS2 | 2026-08-31 23:37:33 | 27.64752 | -82.41624 | 33° | 5km/h | 9006m | 4.3m/s | -24.1°C | 0% | 0hPa | 0V | 00:00:00 | 00:00:00 | 00:00:00 | |
| ARGUS2 | 2026-08-31 23:37:13 | 27.64740 | -82.41621 | 144° | 15km/h | 8930m | 3.1m/s | -23.5°C | 0% | 0hPa | 0V | 00:00:00 | 00:00:00 | 00:00:00 | |
| ARGUS2 | 2026-08-31 23:36:52 | 27.64733 | -82.41641 | 146° | 9km/h | 8853m | 3.9m/s | -22.9°C | 0% | 0hPa | 0V | 00:00:00 | 00:00:00 | 00:00:00 | |
| ARGUS2 | 2026-08-31 23:36:32 | 27.64738 | -82.41647 | 77° | 15km/h | 8767m | 4.3m/s | -22.4°C | 0% | 0hPa | 0V | 00:00:00 | 00:00:00 | 00:00:00 | |
| ARGUS2 | 2026-08-31 23:36:12 | 27.64735 | -82.41656 | 284° | 11km/h | 8684m | 4.2m/s | -21.8°C | 0% | 0hPa | 0V | 00:00:00 | 00:00:00 | 00:00:00 | |
| ARGUS2 | 2026-08-31 23:35:51 | 27.64743 | -82.41656 | 162° | 13km/h | 8599m | 3.5m/s | -21.3°C | 0% | 0hPa | 0V | 00:00:00 | 00:00:00 | 00:00:00 | |
| ARGUS2 | 2026-08-31 23:35:30 | 27.64766 | -82.41673 | 265° | 13km/h | 8513m | 4.9m/s | -20.7°C | 0% | 0hPa | 0V | 00:00:00 | 00:00:00 | 00:00:00 | |
| ARGUS2 | 2026-08-31 23:35:09 | 27.64764 | -82.41682 | 118° | 13km/h | 8428m | 4.2m/s | -20.2°C | 0% | 0hPa | 0V | 00:00:00 | 00:00:00 | 00:00:00 | |
| ARGUS2 | 2026-08-31 23:34:49 | 27.64786 | -82.41682 | 159° | 13km/h | 8335m | 5.8m/s | -19.6°C | 0% | 0hPa | 0V | 00:00:00 | 00:00:00 | 00:00:00 | |
| ARGUS2 | 2026-08-31 23:34:28 | 27.64772 | -82.41692 | 35° | 5km/h | 8247m | 3.8m/s | -19.1°C | 0% | 0hPa | 0V | 00:00:00 | 00:00:00 | 00:00:00 | |
| ARGUS2 | 2026-08-31 23:34:08 | 27.64759 | -82.41747 | 78° | 18km/h | 8159m | 3.4m/s | -18.6°C | 0% | 0hPa | 0V | 00:00:00 | 00:00:00 | 00:00:00 | |
| ARGUS2 | 2026-08-31 23:33:47 | 27.64759 | -82.41795 | 158° | 7km/h | 8075m | 4.6m/s | -18.1°C | 0% | 0hPa | 0V | 00:00:00 | 00:00:00 | 00:00:00 | |
| ARGUS2 | 2026-08-31 23:33:27 | 27.64750 | -82.41835 | 33° | 15km/h | 7985m | 4.1m/s | -17.8°C | 0% | 0hPa | 0V | 00:00:00 | 00:00:00 | 00:00:00 | |
| ARGUS2 | 2026-08-31 23:33:06 | 27.64700 | -82.41840 | 70° | 7km/h | 7905m | 5.2m/s | -17.4°C | 0% | 0hPa | 0V | 00:00:00 | 00:00:00 | 00:00:00 | |
| ARGUS2 | 2026-08-31 23:32:46 | 27.64654 | -82.41868 | 42° | 15km/h | 7818m | 5.1m/s | -16.9°C | 0% | 0hPa | 0V | 00:00:00 | 00:00:00 | 00:00:00 | |
| ARGUS2 | 2026-08-31 23:32:26 | 27.64594 | -82.41884 | 11° | 20km/h | 7721m | 4.0m/s | -16.3°C | 0% | 0hPa | 0V | 00:00:00 | 00:00:00 | 00:00:00 | |
| ARGUS2 | 2026-08-31 23:32:05 | 27.64532 | -82.41896 | 345° | 16km/h | 7618m | 4.2m/s | -15.7°C | 0% | 0hPa | 0V | 00:00:00 | 00:00:00 | 00:00:00 | |
| ARGUS2 | 2026-08-31 23:31:44 | 27.64477 | -82.41916 | 354° | 20km/h | 7525m | 4.3m/s | -15.1°C | 0% | 0hPa | 0V | 00:00:00 | 00:00:00 | 00:00:00 | |
| ARGUS2 | 2026-08-31 23:31:24 | 27.64431 | -82.41922 | 33° | 22km/h | 7437m | 3.4m/s | -14.3°C | 0% | 0hPa | 0V | 00:00:00 | 00:00:00 | 00:00:00 | |
| ARGUS2 | 2026-08-31 23:31:03 | 27.64358 | -82.41975 | 327° | 9km/h | 7345m | 4.3m/s | -14.0°C | 0% | 0hPa | 0V | 00:00:00 | 00:00:00 | 00:00:00 | |
| ARGUS2 | 2026-08-31 23:30:43 | 27.64331 | -82.42030 | 40° | 26km/h | 7246m | 5.0m/s | -13.4°C | 0% | 0hPa | 0V | 00:00:00 | 00:00:00 | 00:00:00 | |
| ARGUS2 | 2026-08-31 23:30:22 | 27.64317 | -82.42069 | 79° | 16km/h | 7163m | 4.1m/s | -12.7°C | 0% | 0hPa | 0V | 00:00:00 | 00:00:00 | 00:00:00 | |
| ARGUS2 | 2026-08-31 23:29:20 | 27.64361 | -82.42189 | 157° | 20km/h | 6891m | 4.0m/s | -11.2°C | 0% | 0hPa | 0V | 00:00:00 | 00:00:00 | 00:00:00 | |
| ARGUS2 | 2026-08-31 23:28:59 | 27.64421 | -82.42237 | 110° | 16km/h | 6791m | 4.6m/s | -10.6°C | 0% | 0hPa | 0V | 00:00:00 | 00:00:00 | 00:00:00 | |
| ARGUS2 | 2026-08-31 23:28:39 | 27.64474 | -82.42290 | 112° | 15km/h | 6694m | 4.3m/s | -10.1°C | 0% | 0hPa | 0V | 00:00:00 | 00:00:00 | 00:00:00 | |
| ARGUS2 | 2026-08-31 23:28:18 | 27.64545 | -82.42324 | 121° | 18km/h | 6583m | 4.6m/s | -9.5°C | 0% | 0hPa | 0V | 00:00:00 | 00:00:00 | 00:00:00 | |
| ARGUS2 | 2026-08-31 23:27:58 | 27.64622 | -82.42369 | 123° | 18km/h | 6477m | 5.6m/s | -8.9°C | 0% | 0hPa | 0V | 00:00:00 | 00:00:00 | 00:00:00 | |
| ARGUS2 | 2026-08-31 23:27:37 | 27.64705 | -82.42411 | 118° | 11km/h | 6363m | 5.4m/s | -8.3°C | 0% | 0hPa | 0V | 00:00:00 | 00:00:00 | 00:00:00 | |
| ARGUS2 | 2026-08-31 23:27:16 | 27.64778 | -82.42460 | 134° | 20km/h | 6255m | 4.7m/s | -7.9°C | 0% | 0hPa | 0V | 00:00:00 | 00:00:00 | 00:00:00 | |
| ARGUS2 | 2026-08-31 23:26:56 | 27.64858 | -82.42467 | 137° | 16km/h | 6154m | 4.4m/s | -7.4°C | 0% | 0hPa | 0V | 00:00:00 | 00:00:00 | 00:00:00 | |
| ARGUS2 | 2026-08-31 23:26:34 | 27.64933 | -82.42473 | 192° | 7km/h | 6053m | 5.0m/s | -6.9°C | 0% | 0hPa | 0V | 00:00:00 | 00:00:00 | 00:00:00 | |
| ARGUS2 | 2026-08-31 23:26:13 | 27.65031 | -82.42473 | 169° | 20km/h | 5951m | 4.6m/s | -6.4°C | 0% | 0hPa | 0V | 00:00:00 | 00:00:00 | 00:00:00 | |
| ARGUS2 | 2026-08-31 23:25:53 | 27.65132 | -82.42460 | 228° | 18km/h | 5856m | 4.8m/s | -5.9°C | 0% | 0hPa | 0V | 00:00:00 | 00:00:00 | 00:00:00 | |
| ARGUS2 | 2026-08-31 23:25:33 | 27.65248 | -82.42424 | 160° | 22km/h | 5762m | 4.2m/s | -5.4°C | 0% | 0hPa | 0V | 00:00:00 | 00:00:00 | 00:00:00 | |
| ARGUS2 | 2026-08-31 23:25:12 | 27.65364 | -82.42391 | 172° | 16km/h | 5676m | 3.9m/s | -5.0°C | 0% | 0hPa | 0V | 00:00:00 | 00:00:00 | 00:00:00 | |
| ARGUS2 | 2026-08-31 23:24:51 | 27.65495 | -82.42352 | 215° | 29km/h | 5586m | 4.7m/s | -4.6°C | 0% | 0hPa | 0V | 00:00:00 | 00:00:00 | 00:00:00 | |
| ARGUS2 | 2026-08-31 23:24:31 | 27.65634 | -82.42325 | 167° | 29km/h | 5492m | 4.4m/s | 0°C | 0% | 0hPa | 0V | 00:00:00 | 00:00:00 | 00:00:00 | |
| ARGUS2 | 2026-08-31 23:22:33 | 27.66134 | -82.42532 | 157° | 24km/h | 4980m | 3.8m/s | -1.4°C | 0% | 0hPa | 0V | 00:00:00 | 00:00:00 | 00:00:00 | |
| ARGUS2 | 2026-08-31 23:21:10 | 27.66323 | -82.43041 | 146° | 20km/h | 4649m | 3.6m/s | -0.6°C | 0% | 0hPa | 0V | 00:00:00 | 00:00:00 | 00:00:00 | |
| ARGUS2 | 2026-08-31 23:20:48 | 27.66396 | -82.43204 | 112° | 37km/h | 4574m | 3.8m/s | -0.1°C | 0% | 0hPa | 0V | 00:00:00 | 00:00:00 | 00:00:00 | |
| ARGUS2 | 2026-08-31 23:20:27 | 27.66528 | -82.43331 | 118° | 31km/h | 4500m | 2.7m/s | -0.6°C | 0% | 0hPa | 0V | 00:00:00 | 00:00:00 | 00:00:00 | |
| ARGUS2 | 2026-08-31 23:12:55 | 27.68703 | -82.43171 | 214° | 26km/h | 2632m | 3.1m/s | 10.6°C | 0% | 0hPa | 0V | 00:00:00 | 00:00:00 | 00:00:00 | |
| ARGUS2 | 2026-08-31 23:12:34 | 27.68812 | -82.43143 | 206° | 13km/h | 2546m | 3.9m/s | 11.1°C | 0% | 0hPa | 0V | 00:00:00 | 00:00:00 | 00:00:00 | |
| ARGUS2 | 2026-08-31 23:12:13 | 27.68914 | -82.43102 | 227° | 15km/h | 2459m | 4.1m/s | 11.6°C | 0% | 0hPa | 0V | 00:00:00 | 00:00:00 | 00:00:00 | |
| ARGUS2 | 2026-08-31 23:11:51 | 27.69025 | -82.43061 | 180° | 16km/h | 2377m | 5.7m/s | 12.1°C | 0% | 0hPa | 0V | 00:00:00 | 00:00:00 | 00:00:00 | |
| ARGUS2 | 2026-08-31 23:11:15 | 27.69191 | -82.42948 | 231° | 27km/h | 2245m | 3.4m/s | 12.7°C | 0% | 0hPa | 0V | 00:00:00 | 00:00:00 | 00:00:00 | |
| ARGUS2 | 2026-08-31 23:10:54 | 27.69288 | -82.42912 | 197° | 13km/h | 2160m | 4.0m/s | 0°C | 0% | 0hPa | 0V | 00:00:00 | 00:00:00 | 00:00:00 | |
| ARGUS2 | 2026-08-31 23:06:44 | 27.70217 | -82.41732 | 266° | 37km/h | 1021m | 3.1m/s | 20.8°C | 0% | 0hPa | 0V | 00:00:00 | 00:00:00 | 00:00:00 | |
| ARGUS2 | 2026-08-31 23:05:55 | 27.70377 | -82.41307 | 245° | 47km/h | 807m | 4.8m/s | 21.7°C | 0% | 0hPa | 0V | 00:00:00 | 00:00:00 | 00:00:00 |